Time;durP1;ratioP1;P1;durP2;ratioP2;P2;SDS_P1;SDS_P2;PMS_P1;PMS_P2;Temp;Humidity;BMP_temperature;BMP_pressure;BME280_temperature;BME280_humidity;BME280_pressure;Samples;Min_cycle;Max_cycle;Signal;HPM_P1;HPM_P2
2021/06/23 00:01:04;;;;;;;5.07;2.05;;;23.60;59.20;;;;;;5031846;28;20491;-84
2021/06/23 00:03:33;;;;;;;6.47;1.80;;;23.50;59.30;;;;;;5024871;28;20021;-84
2021/06/23 00:05:59;;;;;;;3.67;2.13;;;23.50;59.10;;;;;;5032331;28;20032;-84
2021/06/23 00:08:36;;;;;;;3.65;1.85;;;23.40;59.10;;;;;;5022903;28;20410;-84
2021/06/23 00:11:03;;;;;;;5.78;1.77;;;23.40;59.10;;;;;;5030887;28;20103;-84
2021/06/23 00:13:32;;;;;;;4.13;1.65;;;23.30;59.50;;;;;;5025645;28;20132;-85
2021/06/23 00:15:59;;;;;;;6.00;2.53;;;23.30;59.60;;;;;;5026318;28;20021;-84
2021/06/23 00:18:25;;;;;;;7.72;1.88;;;23.30;59.60;;;;;;5028509;28;20029;-84
2021/06/23 00:20:54;;;;;;;5.07;1.75;;;23.30;59.70;;;;;;5032309;28;20398;-84
2021/06/23 00:23:22;;;;;;;4.53;1.77;;;23.30;59.70;;;;;;5030938;28;20060;-85
2021/06/23 00:25:48;;;;;;;6.40;1.95;;;23.20;59.60;;;;;;5038962;28;20022;-84
2021/06/23 00:28:13;;;;;;;4.40;2.15;;;23.30;59.60;;;;;;5020879;28;20116;-85
2021/06/23 00:30:39;;;;;;;6.68;2.90;;;23.20;59.80;;;;;;5027091;28;20083;-84
2021/06/23 00:33:29;;;;;;;4.43;2.08;;;23.20;60.10;;;;;;5021048;28;20040;-84
2021/06/23 00:35:55;;;;;;;4.18;2.15;;;23.20;60.40;;;;;;5032110;28;20040;-85
2021/06/23 00:38:24;;;;;;;6.05;2.00;;;23.30;60.50;;;;;;5022688;28;20497;-85
2021/06/23 00:40:49;;;;;;;6.03;2.40;;;23.40;60.60;;;;;;5023306;28;20477;-86
2021/06/23 00:43:23;;;;;;;5.25;2.22;;;23.40;60.40;;;;;;5030321;28;20037;-86
2021/06/23 00:45:54;;;;;;;3.97;2.22;;;23.40;60.30;;;;;;5031844;28;20026;-86
2021/06/23 00:48:28;;;;;;;5.15;2.22;;;23.30;60.20;;;;;;5023934;28;20033;-85
2021/06/23 00:50:56;;;;;;;7.57;2.85;;;23.30;60.40;;;;;;5025954;28;20026;-85
2021/06/23 00:53:24;;;;;;;5.93;2.30;;;23.30;60.80;;;;;;5024786;28;20394;-85
2021/06/23 00:55:55;;;;;;;3.28;2.22;;;23.30;60.40;;;;;;5044481;28;20423;-85
2021/06/23 00:58:24;;;;;;;7.35;2.20;;;23.40;60.30;;;;;;5051671;28;20059;-85
2021/06/23 01:00:52;;;;;;;4.15;2.63;;;23.30;60.50;;;;;;5046769;28;20021;-86
2021/06/23 01:03:22;;;;;;;7.88;2.28;;;23.30;60.70;;;;;;5054702;28;20089;-86
2021/06/23 01:05:49;;;;;;;3.47;2.00;;;23.20;60.70;;;;;;5054571;28;20035;-86
2021/06/23 01:08:15;;;;;;;3.65;2.03;;;23.20;60.80;;;;;;5054832;28;20028;-85
2021/06/23 01:10:48;;;;;;;3.55;1.98;;;23.10;60.70;;;;;;5055020;28;20046;-85
2021/06/23 01:13:55;;;;;;;3.47;1.90;;;23.10;60.80;;;;;;5041460;28;20040;-85
2021/06/23 01:16:39;;;;;;;5.22;1.95;;;23.20;61.00;;;;;;5070121;28;20108;-85
2021/06/23 01:19:12;;;;;;;5.13;2.42;;;23.20;60.90;;;;;;5048680;28;20082;-86
2021/06/23 01:21:38;;;;;;;3.28;2.20;;;23.20;60.60;;;;;;5071322;28;20020;-85
2021/06/23 01:24:11;;;;;;;2.63;1.98;;;23.30;60.50;;;;;;5047823;28;20032;-85
2021/06/23 01:26:40;;;;;;;5.88;2.42;;;23.30;60.40;;;;;;5054666;28;20040;-85
2021/06/23 01:29:05;;;;;;;6.68;2.08;;;23.40;60.30;;;;;;5057626;28;20108;-85
2021/06/23 01:31:40;;;;;;;2.97;1.90;;;23.30;60.20;;;;;;5048000;28;20560;-85
2021/06/23 01:34:06;;;;;;;4.90;2.50;;;23.30;60.30;;;;;;5046917;28;20024;-85
2021/06/23 01:36:33;;;;;;;2.75;2.20;;;23.30;60.40;;;;;;5053362;28;20024;-86
2021/06/23 01:39:02;;;;;;;7.07;2.83;;;23.20;60.30;;;;;;5038561;28;20112;-86
2021/06/23 01:41:31;;;;;;;7.07;2.15;;;23.20;60.60;;;;;;5054233;28;20397;-85
2021/06/23 01:43:59;;;;;;;3.65;2.38;;;23.20;60.80;;;;;;5053666;28;20021;-85
2021/06/23 01:46:33;;;;;;;4.72;2.78;;;23.20;60.80;;;;;;5043446;28;20077;-86
2021/06/23 01:48:59;;;;;;;4.68;2.72;;;23.30;61.00;;;;;;5060439;28;20032;-86
2021/06/23 01:51:39;;;;;;;8.25;2.90;;;23.30;60.80;;;;;;5053208;28;20029;-86
2021/06/23 01:54:15;;;;;;;;;;;;;;;;;;;;;
2021/06/23 01:56:46;;;;;;;3.22;2.42;;;23.20;60.60;;;;;;5026681;28;20021;-86
2021/06/23 01:59:15;;;;;;;4.63;2.83;;;23.30;60.60;;;;;;5025126;28;20018;-86
2021/06/23 02:02:19;;;;;;;3.17;1.95;;;23.30;60.60;;;;;;5027945;28;20539;-86
2021/06/23 02:04:53;;;;;;;;;;;23.30;60.50;;;;;;5019847;28;20041;-86
2021/06/23 02:07:39;;;;;;;5.07;2.28;;;23.20;60.20;;;;;;5023240;28;19912;-87
2021/06/23 02:10:18;;;;;;;3.75;2.20;;;23.30;60.40;;;;;;5024327;28;20026;-87
2021/06/23 02:13:21;;;;;;;6.30;2.97;;;23.20;60.50;;;;;;5027583;28;20033;-87
2021/06/23 02:15:49;;;;;;;7.32;2.67;;;23.20;60.60;;;;;;5041964;28;20022;-87
2021/06/23 02:18:15;;;;;;;5.50;2.67;;;23.20;60.60;;;;;;5028564;28;20079;-87
2021/06/23 02:20:42;;;;;;;9.35;2.58;;;23.20;60.70;;;;;;5025584;28;20025;-87
2021/06/23 02:23:11;;;;;;;5.97;2.30;;;23.20;60.70;;;;;;5028370;28;20053;-87
2021/06/23 02:25:43;;;;;;;4.07;2.15;;;23.20;60.80;;;;;;5045686;28;20048;-87
2021/06/23 02:28:15;;;;;;;3.25;2.30;;;23.20;60.90;;;;;;5026641;28;20512;-87
2021/06/23 02:30:44;;;;;;;7.45;2.63;;;23.20;61.00;;;;;;5035244;28;20506;-87
2021/06/23 02:33:22;;;;;;;2.65;2.20;;;23.20;61.00;;;;;;5031596;28;20036;-86
2021/06/23 02:35:50;;;;;;;5.28;2.90;;;23.20;61.20;;;;;;5029275;28;20570;-87
2021/06/23 02:38:18;;;;;;;4.30;2.50;;;23.10;61.10;;;;;;5033950;28;20020;-87
2021/06/23 02:40:49;;;;;;;6.78;2.42;;;23.10;61.30;;;;;;5027934;28;20028;-87
2021/06/23 02:43:15;;;;;;;4.10;2.60;;;23.10;61.30;;;;;;5027908;28;20079;-87
2021/06/23 02:45:42;;;;;;;5.13;2.50;;;23.10;61.50;;;;;;5029911;28;20391;-87
2021/06/23 02:48:10;;;;;;;5.00;2.30;;;23.10;61.50;;;;;;5030030;28;20061;-86
2021/06/23 02:50:46;;;;;;;8.63;2.60;;;23.00;61.50;;;;;;5023868;28;21622;-87
2021/06/23 02:53:15;;;;;;;4.80;2.17;;;22.90;61.70;;;;;;5016960;28;20060;-87
2021/06/23 02:55:41;;;;;;;4.95;2.40;;;23.10;61.90;;;;;;5053841;28;20033;-87
2021/06/23 02:58:07;;;;;;;6.60;2.50;;;22.90;62.00;;;;;;5050035;28;20021;-86
2021/06/23 03:00:33;;;;;;;4.28;2.55;;;22.80;62.00;;;;;;5053722;28;20063;-86
2021/06/23 03:02:59;;;;;;;5.60;2.63;;;22.80;62.10;;;;;;5061721;28;20385;-86
2021/06/23 03:05:28;;;;;;;5.20;2.60;;;22.70;62.30;;;;;;5056970;28;20021;-86
2021/06/23 03:07:54;;;;;;;2.75;2.10;;;22.70;62.50;;;;;;5057660;28;20028;-86
2021/06/23 03:10:19;;;;;;;6.50;2.47;;;22.70;62.50;;;;;;5056637;28;20036;-86
2021/06/23 03:12:45;;;;;;;6.22;2.58;;;22.70;62.60;;;;;;5057093;28;20485;-86
2021/06/23 03:15:11;;;;;;;3.88;2.60;;;22.70;62.50;;;;;;5056625;28;20392;-85
2021/06/23 03:17:40;;;;;;;2.92;2.17;;;22.80;62.60;;;;;;5056963;28;20024;-86
2021/06/23 03:20:10;;;;;;;3.97;2.63;;;22.70;62.50;;;;;;5055414;28;20021;-86
2021/06/23 03:22:38;;;;;;;7.47;3.00;;;22.70;62.40;;;;;;5056680;28;20033;-87
2021/06/23 03:25:05;;;;;;;4.38;2.40;;;22.70;62.30;;;;;;5049229;28;20027;-86
2021/06/23 03:27:30;;;;;;;6.60;2.80;;;22.70;62.30;;;;;;5075189;28;20554;-86
2021/06/23 03:29:56;;;;;;;6.05;2.35;;;22.80;62.20;;;;;;5056511;28;20024;-86
2021/06/23 03:32:22;;;;;;;7.05;2.20;;;22.70;62.10;;;;;;5057636;28;20056;-86
2021/06/23 03:34:50;;;;;;;6.85;2.47;;;22.70;62.00;;;;;;5075465;28;20025;-86
2021/06/23 03:37:17;;;;;;;3.03;2.20;;;22.80;61.80;;;;;;5044521;28;20025;-86
2021/06/23 03:39:43;;;;;;;6.78;2.72;;;22.80;61.70;;;;;;5054200;28;20051;-87
2021/06/23 03:42:09;;;;;;;3.92;2.30;;;22.70;61.60;;;;;;5051026;28;20039;-87
2021/06/23 03:44:36;;;;;;;6.45;2.60;;;22.70;61.70;;;;;;5056881;28;20020;-87
2021/06/23 03:47:02;;;;;;;6.88;3.05;;;22.70;61.80;;;;;;5052459;28;20028;-86
2021/06/23 03:49:31;;;;;;;4.28;2.47;;;22.70;62.10;;;;;;5071777;28;20474;-87
2021/06/23 03:51:59;;;;;;;7.03;2.72;;;22.60;62.30;;;;;;5038401;28;20021;-87
2021/06/23 03:54:28;;;;;;;7.95;3.40;;;22.60;62.50;;;;;;5061105;28;20059;-86
2021/06/23 03:57:01;;;;;;;4.63;2.30;;;22.60;62.60;;;;;;5057336;28;20039;-86
2021/06/23 03:59:27;;;;;;;6.32;2.88;;;22.50;62.70;;;;;;5066599;28;20621;-86
2021/06/23 04:02:02;;;;;;;5.47;2.28;;;22.40;62.80;;;;;;5074349;28;20037;-86
2021/06/23 04:04:28;;;;;;;6.63;2.58;;;22.50;62.90;;;;;;5056027;28;20036;-86
2021/06/23 04:06:54;;;;;;;6.05;2.40;;;22.50;62.80;;;;;;5057293;28;20059;-86
2021/06/23 04:09:22;;;;;;;3.70;2.20;;;22.50;62.90;;;;;;5055924;28;20024;-86
2021/06/23 04:11:50;;;;;;;4.78;2.40;;;22.40;63.00;;;;;;5055107;28;20034;-87
2021/06/23 04:14:16;;;;;;;5.55;2.25;;;22.50;63.00;;;;;;5049394;28;20413;-87
2021/06/23 04:16:41;;;;;;;6.40;3.00;;;22.50;63.00;;;;;;5057368;28;20029;-85
2021/06/23 04:19:07;;;;;;;6.97;2.38;;;22.40;62.80;;;;;;5056634;28;20036;-85
2021/06/23 04:21:33;;;;;;;4.35;2.63;;;22.40;62.90;;;;;;5073224;28;20081;-86
2021/06/23 04:23:59;;;;;;;5.75;2.47;;;22.30;62.90;;;;;;5047888;28;20476;-86
2021/06/23 04:26:25;;;;;;;6.75;2.00;;;22.40;62.80;;;;;;5049066;28;20040;-85
2021/06/23 04:28:52;;;;;;;9.02;2.30;;;22.40;62.40;;;;;;5053447;28;20032;-86
2021/06/23 04:31:18;;;;;;;7.97;2.85;;;22.40;62.40;;;;;;5053205;28;20032;-85
2021/06/23 04:33:44;;;;;;;4.50;2.22;;;22.40;62.50;;;;;;5052654;28;20110;-85
2021/06/23 04:36:10;;;;;;;4.65;2.08;;;22.40;62.40;;;;;;5065566;28;20031;-86
2021/06/23 04:38:36;;;;;;;3.30;1.80;;;22.40;62.40;;;;;;5073974;28;20043;-86
2021/06/23 04:41:03;;;;;;;6.57;2.22;;;22.40;62.40;;;;;;5053688;28;20521;-86
2021/06/23 04:43:28;;;;;;;4.18;2.47;;;22.40;62.50;;;;;;5047994;28;20111;-86
2021/06/23 04:45:54;;;;;;;5.60;2.50;;;22.60;62.30;;;;;;5045545;28;20572;-86
2021/06/23 04:48:20;;;;;;;5.97;2.50;;;22.60;62.90;;;;;;5074304;28;20094;-86
2021/06/23 04:50:49;;;;;;;4.68;2.22;;;22.70;62.30;;;;;;5075010;28;20040;-86
2021/06/23 04:53:15;;;;;;;3.65;2.08;;;22.70;62.20;;;;;;5055815;28;20115;-87
2021/06/23 04:55:40;;;;;;;4.03;2.17;;;22.80;62.20;;;;;;5056591;28;20136;-87
2021/06/23 04:58:07;;;;;;;2.90;1.85;;;22.90;61.90;;;;;;5056925;28;20024;-86
2021/06/23 05:00:33;;;;;;;2.53;1.55;;;22.80;61.70;;;;;;5056377;28;20033;-87
2021/06/23 05:02:58;;;;;;;4.22;1.50;;;22.90;61.60;;;;;;5043478;28;20470;-86
2021/06/23 05:05:24;;;;;;;5.80;1.70;;;22.90;61.40;;;;;;5056076;28;20032;-86
2021/06/23 05:07:53;;;;;;;3.75;1.55;;;23.00;61.30;;;;;;5056619;28;20093;-86
2021/06/23 05:10:19;;;;;;;4.35;1.60;;;23.00;61.00;;;;;;5048938;28;20123;-87
2021/06/23 05:12:48;;;;;;;3.92;1.60;;;23.00;60.90;;;;;;5048304;28;20181;-86
2021/06/23 05:15:14;;;;;;;6.78;1.98;;;23.10;60.90;;;;;;5054993;28;20060;-86
2021/06/23 05:17:42;;;;;;;3.92;1.77;;;23.10;60.80;;;;;;5048360;28;20044;-85
2021/06/23 05:20:09;;;;;;;3.55;1.63;;;23.10;60.80;;;;;;5047227;28;20439;-86
2021/06/23 05:22:34;;;;;;;2.20;1.38;;;23.10;60.80;;;;;;5055024;28;20499;-86
2021/06/23 05:25:02;;;;;;;5.00;1.90;;;23.20;60.80;;;;;;5043264;28;20033;-86
2021/06/23 05:27:31;;;;;;;2.88;1.63;;;23.20;60.70;;;;;;5036218;28;20065;-86
2021/06/23 05:30:03;;;;;;;7.28;2.38;;;23.20;60.70;;;;;;5044048;28;20119;-87
2021/06/23 05:32:29;;;;;;;3.40;1.83;;;23.20;60.50;;;;;;5050485;28;20036;-87
2021/06/23 05:34:54;;;;;;;9.32;2.67;;;23.20;60.40;;;;;;5052769;28;20122;-87
2021/06/23 05:37:20;;;;;;;8.98;3.15;;;23.20;60.60;;;;;;5053867;28;20393;-87
2021/06/23 05:39:46;;;;;;;4.82;1.80;;;23.20;60.60;;;;;;5048783;28;20021;-87
2021/06/23 05:42:11;;;;;;;2.78;1.65;;;23.20;60.50;;;;;;5036130;28;20091;-87
2021/06/23 05:44:37;;;;;;;6.13;2.33;;;23.20;60.40;;;;;;5051885;28;20039;-87
2021/06/23 05:47:09;;;;;;;4.47;1.73;;;23.20;60.40;;;;;;5043981;28;20017;-87
2021/06/23 05:49:35;;;;;;;6.60;1.80;;;23.40;60.30;;;;;;5070024;28;20021;-87
2021/06/23 05:52:03;;;;;;;4.90;1.80;;;23.40;60.10;;;;;;5047769;28;20021;-87
2021/06/23 05:54:29;;;;;;;6.78;1.70;;;23.40;60.10;;;;;;5036901;28;20108;-86
2021/06/23 05:56:54;;;;;;;3.30;1.60;;;23.40;60.00;;;;;;5031414;28;20045;-86
2021/06/23 05:59:20;;;;;;;6.13;1.63;;;23.50;60.00;;;;;;5025072;28;20117;-86
2021/06/23 06:01:46;;;;;;;2.17;1.70;;;23.40;59.80;;;;;;5033516;28;20026;-87
2021/06/23 06:04:11;;;;;;;3.85;1.33;;;23.50;59.80;;;;;;5029164;28;20029;-87
2021/06/23 06:06:37;;;;;;;1.85;1.50;;;23.50;60.30;;;;;;5031012;28;20090;-87
2021/06/23 06:09:03;;;;;;;3.03;1.35;;;23.50;59.70;;;;;;5033516;28;20033;-87
2021/06/23 06:11:29;;;;;;;2.42;1.50;;;23.50;59.70;;;;;;5024867;28;20375;-87
2021/06/23 06:13:54;;;;;;;3.05;1.30;;;23.50;59.80;;;;;;5024680;28;20038;-87
2021/06/23 06:16:20;;;;;;;3.83;2.85;;;23.50;60.00;;;;;;5024505;28;20029;-87
2021/06/23 06:18:47;;;;;;;5.10;1.52;;;23.40;60.50;;;;;;5032773;28;20048;-87
2021/06/23 06:21:14;;;;;;;6.43;1.60;;;23.40;60.20;;;;;;5020510;28;20075;-87
2021/06/23 06:23:41;;;;;;;2.20;1.40;;;23.40;60.30;;;;;;5031421;28;20028;-87
2021/06/23 06:26:07;;;;;;;6.03;1.38;;;23.40;60.20;;;;;;5030123;28;20033;-87
2021/06/23 06:28:34;;;;;;;3.50;1.80;;;23.40;60.30;;;;;;5032547;28;20121;-87
2021/06/23 06:31:00;;;;;;;5.57;1.83;;;23.40;60.40;;;;;;5031488;28;20075;-87
2021/06/23 06:33:26;;;;;;;4.03;1.35;;;23.40;60.40;;;;;;5023376;28;20038;-87
2021/06/23 06:35:51;;;;;;;2.10;1.50;;;23.40;60.30;;;;;;5028183;28;20072;-87
2021/06/23 06:38:17;;;;;;;3.13;1.45;;;23.40;60.10;;;;;;5031090;28;20021;-87
2021/06/23 06:40:43;;;;;;;1.95;1.20;;;23.40;60.10;;;;;;5025798;28;20021;-87
2021/06/23 06:43:09;;;;;;;3.10;1.13;;;23.50;59.80;;;;;;5031789;28;20022;-87
2021/06/23 06:45:35;;;;;;;2.17;1.27;;;23.50;59.60;;;;;;5027877;28;20603;-88
2021/06/23 06:48:01;;;;;;;6.22;1.00;;;23.50;59.60;;;;;;5021992;28;20075;-87
2021/06/23 06:50:27;;;;;;;3.53;1.48;;;23.60;59.60;;;;;;5026440;28;20108;-87
2021/06/23 06:52:53;;;;;;;4.00;1.42;;;23.70;59.30;;;;;;5023813;28;20048;-87
2021/06/23 06:55:21;;;;;;;4.28;1.83;;;23.80;59.70;;;;;;5030838;28;20072;-86
2021/06/23 06:57:55;;;;;;;6.10;1.80;;;23.80;59.20;;;;;;5025176;28;20030;-87
2021/06/23 07:00:22;;;;;;;4.07;1.45;;;23.90;59.10;;;;;;5030586;28;20033;-87
2021/06/23 07:02:48;;;;;;;3.17;1.10;;;24.00;59.00;;;;;;5018852;28;20075;-87
2021/06/23 07:05:15;;;;;;;3.60;1.30;;;24.20;58.80;;;;;;5031726;28;20437;-87
2021/06/23 07:07:41;;;;;;;1.45;1.00;;;24.30;58.50;;;;;;5019598;28;20033;-87
2021/06/23 07:10:07;;;;;;;2.42;1.52;;;24.40;58.10;;;;;;5028724;28;20080;-87
2021/06/23 07:12:34;;;;;;;2.22;1.45;;;24.40;57.90;;;;;;5021823;28;20029;-87
2021/06/23 07:15:00;;;;;;;3.15;1.60;;;24.50;58.00;;;;;;5014601;28;20040;-87
2021/06/23 07:17:26;;;;;;;6.97;1.45;;;24.70;57.80;;;;;;5033374;28;20112;-88
2021/06/23 07:19:51;;;;;;;5.65;1.70;;;24.80;57.40;;;;;;5036442;28;20486;-87
2021/06/23 07:22:17;;;;;;;3.42;1.48;;;24.80;57.70;;;;;;5035145;28;20029;-87
2021/06/23 07:24:45;;;;;;;1.95;1.25;;;24.90;57.20;;;;;;5026925;28;20086;-87
2021/06/23 07:27:10;;;;;;;2.88;1.67;;;25.00;56.90;;;;;;5034752;28;20079;-87
2021/06/23 07:29:36;;;;;;;8.93;1.63;;;25.10;56.50;;;;;;5034817;28;20030;-87
2021/06/23 07:32:05;;;;;;;3.88;1.02;;;25.20;56.40;;;;;;5027092;28;20024;-87
2021/06/23 07:37:05;;;;;;;5.88;1.35;;;25.30;56.60;;;;;;5022332;28;20021;-87
2021/06/23 07:39:32;;;;;;;4.20;1.30;;;25.40;55.30;;;;;;5024623;28;20045;-87
2021/06/23 07:41:58;;;;;;;1.40;1.27;;;25.40;55.50;;;;;;5030550;28;20010;-86
2021/06/23 07:44:36;;;;;;;3.38;2.05;;;25.50;55.20;;;;;;5038323;28;20029;-87
2021/06/23 07:47:06;;;;;;;1.52;1.33;;;25.50;55.10;;;;;;5034271;28;20053;-87
2021/06/23 07:49:35;;;;;;;2.97;1.20;;;25.50;55.00;;;;;;5034610;28;20108;-88
2021/06/23 08:10:36;;;;;;;4.20;1.45;;;26.40;53.40;;;;;;5065945;28;20593;-87
2021/06/23 08:13:03;;;;;;;1.70;1.30;;;26.50;53.00;;;;;;5052159;28;20025;-88
2021/06/23 08:15:31;;;;;;;2.75;1.10;;;26.60;52.60;;;;;;5073579;28;20032;-87
2021/06/23 08:17:57;;;;;;;2.85;1.20;;;26.70;52.30;;;;;;5046308;28;20021;-87
2021/06/23 08:20:24;;;;;;;4.43;1.25;;;26.80;52.30;;;;;;5070616;28;20032;-87
2021/06/23 08:22:51;;;;;;;2.58;1.40;;;26.90;52.10;;;;;;5057153;28;20039;-88
2021/06/23 08:25:17;;;;;;;3.05;1.40;;;27.00;51.70;;;;;;5048280;28;20031;-88
2021/06/23 08:27:43;;;;;;;4.20;1.27;;;27.00;51.80;;;;;;5055194;28;20028;-87
2021/06/23 08:30:10;;;;;;;5.97;1.52;;;27.10;51.70;;;;;;5062971;28;20497;-87
2021/06/23 08:32:45;;;;;;;1.40;1.30;;;27.20;51.50;;;;;;5075808;28;20052;-86
2021/06/23 08:35:11;;;;;;;5.20;1.27;;;27.30;51.20;;;;;;5045592;28;20036;-88
2021/06/23 08:37:38;;;;;;;6.28;1.30;;;27.30;51.30;;;;;;5047433;28;20024;-87
2021/06/23 08:40:06;;;;;;;6.38;1.40;;;27.30;50.80;;;;;;5058628;28;20485;-87
2021/06/23 08:42:32;;;;;;;2.30;1.10;;;27.30;51.10;;;;;;5058195;28;20370;-86
2021/06/23 08:45:10;;;;;;;7.85;1.42;;;27.40;51.00;;;;;;5041934;28;20075;-86
2021/06/23 08:47:41;;;;;;;1.55;1.27;;;27.40;50.50;;;;;;5056681;28;20054;-87
2021/06/23 08:50:09;;;;;;;3.13;1.30;;;27.40;50.60;;;;;;5074501;28;20489;-88
2021/06/23 08:52:35;;;;;;;1.52;1.30;;;27.50;51.10;;;;;;5061605;28;20077;-87
2021/06/23 08:55:01;;;;;;;2.85;1.58;;;27.60;50.40;;;;;;5051092;28;20568;-87
2021/06/23 08:57:27;;;;;;;1.90;1.10;;;27.60;50.20;;;;;;5052553;28;20167;-87
2021/06/23 08:59:53;;;;;;;7.03;1.85;;;27.60;50.10;;;;;;5045275;28;20120;-87
2021/06/23 09:02:19;;;;;;;1.85;1.20;;;27.70;50.00;;;;;;5058228;28;20048;-87
2021/06/23 09:04:59;;;;;;;3.78;1.67;;;27.70;49.90;;;;;;5055669;28;20113;-87
2021/06/23 09:07:40;;;;;;;3.15;1.67;;;27.80;49.70;;;;;;5055560;28;20477;-87
2021/06/23 09:10:27;;;;;;;5.22;1.70;;;27.90;49.40;;;;;;5073166;28;20024;-88
2021/06/23 09:13:08;;;;;;;2.55;1.38;;;27.90;49.70;;;;;;5055495;28;20025;-87
2021/06/23 09:15:42;;;;;;;5.90;1.30;;;28.00;49.70;;;;;;5049342;28;20040;-87
2021/06/23 09:18:18;;;;;;;8.63;1.50;;;28.00;49.50;;;;;;5066771;28;20029;-88
2021/06/23 09:20:45;;;;;;;6.97;1.63;;;28.00;49.20;;;;;;5062330;28;20028;-87
2021/06/23 09:23:12;;;;;;;2.17;1.23;;;28.00;49.20;;;;;;5051429;28;20481;-88
2021/06/23 09:25:39;;;;;;;1.50;1.30;;;28.00;49.00;;;;;;5047785;28;20564;-87
2021/06/23 09:28:13;;;;;;;4.05;1.98;;;28.10;49.10;;;;;;5047971;28;20025;-87
2021/06/23 09:30:42;;;;;;;2.95;1.55;;;28.20;48.90;;;;;;5046486;28;20024;-87
2021/06/23 09:33:13;;;;;;;1.67;1.20;;;28.10;48.80;;;;;;5044050;28;20393;-87
2021/06/23 09:35:47;;;;;;;2.58;1.40;;;28.20;48.60;;;;;;5054878;28;20035;-87
2021/06/23 09:38:36;;;;;;;3.90;1.25;;;28.20;48.50;;;;;;5047020;28;20025;-87
2021/06/23 09:41:17;;;;;;;1.92;1.33;;;28.30;48.60;;;;;;5041524;28;20032;-87
2021/06/23 09:43:44;;;;;;;7.65;1.38;;;28.20;48.20;;;;;;5071446;28;20401;-87
2021/06/23 09:46:17;;;;;;;2.28;1.58;;;28.30;48.20;;;;;;5053304;28;20550;-88
2021/06/23 09:48:44;;;;;;;3.25;1.80;;;28.30;48.10;;;;;;5073997;28;20074;-88
2021/06/23 09:51:21;;;;;;;6.85;1.52;;;28.30;48.20;;;;;;5052058;28;20035;-87
2021/06/23 09:53:48;;;;;;;5.38;1.42;;;28.30;48.30;;;;;;5055321;28;20177;-87
2021/06/23 09:56:32;;;;;;;3.08;1.60;;;28.30;48.40;;;;;;5048272;28;20037;-87
2021/06/23 09:59:00;;;;;;;3.92;1.52;;;28.30;48.30;;;;;;5034743;28;20076;-89
2021/06/23 10:01:27;;;;;;;6.13;1.80;;;28.40;48.30;;;;;;5033892;28;20025;-87
2021/06/23 10:03:59;;;;;;;3.08;1.50;;;28.50;48.40;;;;;;5036404;28;20073;-87
2021/06/23 10:06:45;;;;;;;2.95;1.55;;;28.50;48.20;;;;;;5029022;28;20036;-87
2021/06/23 10:09:25;;;;;;;2.50;1.80;;;28.60;48.30;;;;;;5052185;28;20481;-88
2021/06/23 10:11:55;;;;;;;2.55;1.55;;;28.60;48.20;;;;;;5035221;28;20025;-87
2021/06/23 10:14:23;;;;;;;3.28;1.60;;;28.70;47.90;;;;;;5032034;28;20053;-87
2021/06/23 10:16:51;;;;;;;3.47;1.70;;;28.70;48.00;;;;;;5034506;28;20539;-88
2021/06/23 10:19:17;;;;;;;7.43;1.83;;;28.80;47.70;;;;;;5034760;28;20025;-87
2021/06/23 10:21:44;;;;;;;4.88;1.70;;;28.80;47.70;;;;;;5053718;28;20461;-88
2021/06/23 10:24:12;;;;;;;8.05;2.67;;;28.80;47.60;;;;;;5045833;28;20067;-88
2021/06/23 10:26:43;;;;;;;4.93;2.05;;;28.90;47.80;;;;;;5028014;28;20036;-87
2021/06/23 10:29:12;;;;;;;3.13;2.00;;;29.00;47.70;;;;;;5034651;28;20029;-87
2021/06/23 10:31:38;;;;;;;9.52;3.10;;;29.10;47.70;;;;;;5035920;28;20025;-87
2021/06/23 10:34:04;;;;;;;5.28;2.22;;;29.00;47.30;;;;;;5032534;28;20024;-87
2021/06/23 10:36:30;;;;;;;2.58;1.95;;;29.10;47.40;;;;;;5027852;28;20032;-87
2021/06/23 10:38:57;;;;;;;4.60;2.55;;;29.10;47.20;;;;;;5030677;28;20045;-87
2021/06/23 10:41:23;;;;;;;2.60;1.80;;;29.10;47.00;;;;;;5042134;28;20047;-87
2021/06/23 10:44:17;;;;;;;6.30;2.17;;;29.10;46.90;;;;;;5028506;28;20822;-87
2021/06/23 10:46:47;;;;;;;5.18;1.80;;;29.10;46.90;;;;;;5033632;28;20502;-87
2021/06/23 10:49:18;;;;;;;4.10;2.10;;;29.10;47.10;;;;;;5035377;28;20036;-87
2021/06/23 10:51:47;;;;;;;6.78;1.90;;;29.10;47.00;;;;;;5038844;28;20119;-86
2021/06/23 10:54:30;;;;;;;7.38;2.20;;;29.20;46.70;;;;;;5043663;28;20052;-87
2021/06/23 10:56:56;;;;;;;3.80;1.85;;;29.20;46.30;;;;;;5034627;28;20120;-87
2021/06/23 10:59:35;;;;;;;3.33;1.77;;;29.20;46.40;;;;;;5045189;28;20064;-87
2021/06/23 11:02:15;;;;;;;3.78;2.10;;;29.20;46.60;;;;;;5035437;28;20123;-86
2021/06/23 11:05:02;;;;;;;6.35;1.80;;;29.30;46.50;;;;;;5031945;28;20041;-87
2021/06/23 11:07:36;;;;;;;4.15;1.80;;;29.40;46.60;;;;;;5039728;28;20017;-88
2021/06/23 11:10:15;;;;;;;5.10;1.98;;;29.50;46.60;;;;;;5037358;28;20112;-87
2021/06/23 11:12:47;;;;;;;3.58;1.45;;;29.60;46.40;;;;;;5032508;28;20054;-87
2021/06/23 11:15:16;;;;;;;2.88;1.80;;;29.60;46.20;;;;;;5032047;28;20181;-87
2021/06/23 11:18:25;;;;;;;6.47;1.83;;;29.60;45.80;;;;;;5036669;28;20033;-86
2021/06/23 11:20:56;;;;;;;5.05;1.90;;;29.50;45.60;;;;;;5006182;28;20036;-86
2021/06/23 11:23:57;;;;;;;4.82;1.95;;;29.60;46.00;;;;;;5037815;28;20421;-87
2021/06/23 11:26:23;;;;;;;6.05;2.08;;;29.60;45.50;;;;;;5031622;28;20033;-87
2021/06/23 11:28:50;;;;;;;2.72;1.73;;;29.60;46.20;;;;;;5037988;28;20444;-87
2021/06/23 11:31:17;;;;;;;4.25;2.05;;;29.60;45.70;;;;;;5055947;28;20021;-87
2021/06/23 11:33:45;;;;;;;2.15;1.52;;;29.70;45.80;;;;;;5034541;28;20032;-87
2021/06/23 11:36:21;;;;;;;4.13;1.60;;;29.80;45.90;;;;;;5037674;28;20108;-87
2021/06/23 11:38:48;;;;;;;3.80;2.00;;;29.90;45.80;;;;;;5055269;28;20025;-87
2021/06/23 11:41:15;;;;;;;4.03;1.98;;;29.90;45.90;;;;;;5053548;28;20108;-86
2021/06/23 11:43:53;;;;;;;7.32;1.95;;;29.90;45.60;;;;;;5035137;28;20130;-85
2021/06/23 11:46:19;;;;;;;5.78;2.40;;;30.00;45.90;;;;;;5034603;28;20470;-86
2021/06/23 11:48:45;;;;;;;4.32;1.88;;;29.90;45.70;;;;;;5063873;28;20021;-86
2021/06/23 11:51:12;;;;;;;4.55;2.00;;;29.90;45.70;;;;;;5037390;28;20078;-86
2021/06/23 11:53:40;;;;;;;5.93;1.90;;;29.80;45.80;;;;;;5036950;28;20068;-87
2021/06/23 11:56:07;;;;;;;4.50;1.67;;;29.90;45.90;;;;;;5051677;28;20117;-85
2021/06/23 11:58:39;;;;;;;6.68;2.42;;;29.90;45.80;;;;;;5053957;28;20025;-86
2021/06/23 12:01:05;;;;;;;5.70;1.90;;;29.90;45.80;;;;;;5031176;28;20045;-86
2021/06/23 12:03:31;;;;;;;3.92;2.10;;;29.90;45.90;;;;;;5052499;28;20052;-86
2021/06/23 12:05:57;;;;;;;7.38;2.20;;;29.80;45.70;;;;;;5058372;28;20469;-86
2021/06/23 12:08:23;;;;;;;4.70;1.50;;;29.70;45.90;;;;;;5035916;28;20044;-86
2021/06/23 12:10:54;;;;;;;8.25;2.00;;;29.60;46.00;;;;;;5038790;28;20032;-86
2021/06/23 12:13:22;;;;;;;4.85;1.80;;;29.60;46.00;;;;;;5030627;28;20092;-86
2021/06/23 12:15:48;;;;;;;6.47;2.05;;;29.60;46.30;;;;;;5027161;28;20029;-86
2021/06/23 12:18:14;;;;;;;5.30;2.00;;;29.70;46.20;;;;;;5034255;28;20036;-87
2021/06/23 12:20:41;;;;;;;3.90;2.15;;;29.70;46.20;;;;;;5033457;28;21407;-87
2021/06/23 12:23:09;;;;;;;6.30;2.40;;;29.50;46.30;;;;;;5035074;28;20033;-87
2021/06/23 12:25:38;;;;;;;5.38;2.03;;;29.50;46.60;;;;;;5034259;28;20029;-86
2021/06/23 12:28:06;;;;;;;4.47;2.00;;;29.50;46.60;;;;;;5034884;28;20032;-88
2021/06/23 12:30:33;;;;;;;4.20;1.83;;;29.30;46.60;;;;;;5053505;28;20086;-88
2021/06/23 12:33:02;;;;;;;5.30;1.85;;;29.50;46.70;;;;;;5039134;28;20115;-88
2021/06/23 12:35:27;;;;;;;4.60;2.22;;;29.60;46.60;;;;;;5029345;28;20037;-88
2021/06/23 12:38:00;;;;;;;6.85;2.30;;;29.60;46.50;;;;;;5032073;28;20048;-88
2021/06/23 12:40:27;;;;;;;8.82;2.40;;;29.60;46.60;;;;;;5040132;28;20096;-88
2021/06/23 12:42:54;;;;;;;3.50;2.08;;;29.70;46.80;;;;;;5054001;28;20470;-88
2021/06/23 12:45:20;;;;;;;2.72;1.75;;;29.80;46.80;;;;;;5037134;28;20092;-88
2021/06/23 12:47:46;;;;;;;9.15;2.28;;;29.80;46.80;;;;;;5055256;28;20028;-88
2021/06/23 12:50:16;;;;;;;7.78;2.25;;;29.90;46.70;;;;;;5038424;28;20158;-88
2021/06/23 12:52:46;;;;;;;5.80;2.20;;;29.80;46.60;;;;;;5022824;28;20055;-88
2021/06/23 12:55:13;;;;;;;7.57;2.22;;;29.70;46.80;;;;;;5024022;28;20045;-88
2021/06/23 12:57:39;;;;;;;8.88;2.30;;;29.70;47.20;;;;;;5045930;28;20080;-88
2021/06/23 13:00:08;;;;;;;7.07;2.10;;;29.80;47.20;;;;;;5035691;28;20030;-89
2021/06/23 13:02:35;;;;;;;7.28;1.85;;;29.80;46.90;;;;;;5032266;28;20074;-88
2021/06/23 13:05:06;;;;;;;5.35;2.38;;;29.70;46.90;;;;;;5031604;28;20497;-88
2021/06/23 13:07:32;;;;;;;5.15;2.45;;;29.80;46.90;;;;;;5033559;28;20117;-88
2021/06/23 13:10:00;;;;;;;7.43;2.70;;;29.80;46.70;;;;;;5036664;28;20021;-88
2021/06/23 13:12:26;;;;;;;8.82;2.67;;;29.90;46.80;;;;;;5033957;28;20043;-88
2021/06/23 13:14:51;;;;;;;3.33;2.25;;;30.00;46.70;;;;;;5033087;28;20025;-88
2021/06/23 13:17:18;;;;;;;4.78;2.10;;;30.00;46.70;;;;;;5035798;28;20025;-88
2021/06/23 13:19:54;;;;;;;6.05;2.50;;;29.90;46.60;;;;;;5041866;28;20009;-88